sensor_id;sensor_type;location;lat;lon;timestamp;P1;durP1;ratioP1;P2;durP2;ratioP2
51985;SDS011;38002;53.296;6.600;2023-06-22T00:01:54;15.60;;;13.97;;
51985;SDS011;38002;53.296;6.600;2023-06-22T00:06:54;17.17;;;14.83;;
51985;SDS011;38002;53.296;6.600;2023-06-22T00:11:55;18.87;;;15.53;;
51985;SDS011;38002;53.296;6.600;2023-06-22T00:16:55;18.07;;;15.67;;
51985;SDS011;38002;53.296;6.600;2023-06-22T00:21:59;17.55;;;15.65;;
51985;SDS011;38002;53.296;6.600;2023-06-22T00:27:00;19.52;;;16.00;;
51985;SDS011;38002;53.296;6.600;2023-06-22T00:32:00;17.30;;;15.43;;
51985;SDS011;38002;53.296;6.600;2023-06-22T00:37:01;18.63;;;15.00;;
51985;SDS011;38002;53.296;6.600;2023-06-22T00:42:01;18.17;;;16.37;;
51985;SDS011;38002;53.296;6.600;2023-06-22T00:47:02;18.93;;;15.87;;
51985;SDS011;38002;53.296;6.600;2023-06-22T00:52:03;17.38;;;15.30;;
51985;SDS011;38002;53.296;6.600;2023-06-22T00:57:04;19.60;;;16.90;;
51985;SDS011;38002;53.296;6.600;2023-06-22T01:02:04;18.37;;;16.03;;
51985;SDS011;38002;53.296;6.600;2023-06-22T01:12:13;14.90;;;13.00;;
51985;SDS011;38002;53.296;6.600;2023-06-22T01:17:16;18.42;;;15.75;;
51985;SDS011;38002;53.296;6.600;2023-06-22T01:22:19;18.65;;;15.00;;
51985;SDS011;38002;53.296;6.600;2023-06-22T01:32:45;21.98;;;17.55;;
51985;SDS011;38002;53.296;6.600;2023-06-22T01:37:47;20.27;;;17.65;;
51985;SDS011;38002;53.296;6.600;2023-06-22T01:42:49;21.58;;;17.98;;
51985;SDS011;38002;53.296;6.600;2023-06-22T01:47:51;19.42;;;17.13;;
51985;SDS011;38002;53.296;6.600;2023-06-22T01:52:51;21.03;;;17.50;;
51985;SDS011;38002;53.296;6.600;2023-06-22T01:57:52;18.80;;;15.17;;
51985;SDS011;38002;53.296;6.600;2023-06-22T02:02:54;20.10;;;17.53;;
51985;SDS011;38002;53.296;6.600;2023-06-22T02:08:08;20.67;;;16.85;;
51985;SDS011;38002;53.296;6.600;2023-06-22T02:13:11;21.75;;;18.17;;
51985;SDS011;38002;53.296;6.600;2023-06-22T02:18:14;20.83;;;17.05;;
51985;SDS011;38002;53.296;6.600;2023-06-22T02:23:14;22.77;;;18.17;;
51985;SDS011;38002;53.296;6.600;2023-06-22T02:28:15;17.87;;;15.97;;
51985;SDS011;38002;53.296;6.600;2023-06-22T02:33:15;18.20;;;16.30;;
51985;SDS011;38002;53.296;6.600;2023-06-22T02:38:15;20.90;;;14.10;;
51985;SDS011;38002;53.296;6.600;2023-06-22T02:43:17;16.63;;;14.38;;
51985;SDS011;38002;53.296;6.600;2023-06-22T02:48:18;20.30;;;16.13;;
51985;SDS011;38002;53.296;6.600;2023-06-22T02:53:18;21.53;;;18.07;;
51985;SDS011;38002;53.296;6.600;2023-06-22T02:58:19;20.57;;;17.23;;
51985;SDS011;38002;53.296;6.600;2023-06-22T03:03:20;21.70;;;18.40;;
51985;SDS011;38002;53.296;6.600;2023-06-22T03:08:20;23.27;;;18.60;;
51985;SDS011;38002;53.296;6.600;2023-06-22T03:13:20;19.37;;;16.03;;
51985;SDS011;38002;53.296;6.600;2023-06-22T03:18:21;23.53;;;18.80;;
51985;SDS011;38002;53.296;6.600;2023-06-22T03:23:22;26.73;;;17.60;;
51985;SDS011;38002;53.296;6.600;2023-06-22T03:28:22;21.97;;;18.47;;
51985;SDS011;38002;53.296;6.600;2023-06-22T03:33:23;20.27;;;16.57;;
51985;SDS011;38002;53.296;6.600;2023-06-22T03:38:24;25.90;;;20.03;;
51985;SDS011;38002;53.296;6.600;2023-06-22T03:43:24;22.63;;;19.43;;
51985;SDS011;38002;53.296;6.600;2023-06-22T03:48:24;24.03;;;17.83;;
51985;SDS011;38002;53.296;6.600;2023-06-22T03:53:25;23.50;;;19.30;;
51985;SDS011;38002;53.296;6.600;2023-06-22T03:58:25;21.70;;;18.83;;
51985;SDS011;38002;53.296;6.600;2023-06-22T04:03:26;22.43;;;19.10;;
51985;SDS011;38002;53.296;6.600;2023-06-22T04:08:26;23.23;;;19.83;;
51985;SDS011;38002;53.296;6.600;2023-06-22T04:13:27;23.93;;;18.67;;
51985;SDS011;38002;53.296;6.600;2023-06-22T04:18:27;29.00;;;24.50;;
51985;SDS011;38002;53.296;6.600;2023-06-22T04:23:27;32.13;;;24.70;;
51985;SDS011;38002;53.296;6.600;2023-06-22T04:28:28;40.87;;;28.67;;
51985;SDS011;38002;53.296;6.600;2023-06-22T04:33:28;27.37;;;21.67;;
51985;SDS011;38002;53.296;6.600;2023-06-22T04:38:29;33.37;;;27.03;;
51985;SDS011;38002;53.296;6.600;2023-06-22T04:43:33;38.40;;;30.20;;
51985;SDS011;38002;53.296;6.600;2023-06-22T04:48:34;40.03;;;29.90;;
51985;SDS011;38002;53.296;6.600;2023-06-22T04:53:34;34.73;;;26.07;;
51985;SDS011;38002;53.296;6.600;2023-06-22T04:58:35;48.43;;;35.10;;
51985;SDS011;38002;53.296;6.600;2023-06-22T05:03:35;38.70;;;28.52;;
51985;SDS011;38002;53.296;6.600;2023-06-22T05:08:36;48.40;;;33.20;;
51985;SDS011;38002;53.296;6.600;2023-06-22T05:13:37;33.60;;;24.50;;
51985;SDS011;38002;53.296;6.600;2023-06-22T05:18:37;43.47;;;30.37;;
51985;SDS011;38002;53.296;6.600;2023-06-22T05:23:38;43.63;;;31.30;;
51985;SDS011;38002;53.296;6.600;2023-06-22T05:28:38;53.50;;;35.57;;
51985;SDS011;38002;53.296;6.600;2023-06-22T05:33:39;38.23;;;28.10;;
51985;SDS011;38002;53.296;6.600;2023-06-22T05:38:40;44.42;;;33.67;;
51985;SDS011;38002;53.296;6.600;2023-06-22T05:43:41;66.78;;;43.97;;
51985;SDS011;38002;53.296;6.600;2023-06-22T05:48:42;60.30;;;42.70;;
51985;SDS011;38002;53.296;6.600;2023-06-22T05:53:42;55.77;;;38.63;;
51985;SDS011;38002;53.296;6.600;2023-06-22T05:58:45;58.50;;;41.83;;
51985;SDS011;38002;53.296;6.600;2023-06-22T06:03:46;51.42;;;38.10;;
51985;SDS011;38002;53.296;6.600;2023-06-22T06:08:46;62.97;;;42.23;;
51985;SDS011;38002;53.296;6.600;2023-06-22T06:13:47;43.83;;;30.90;;
51985;SDS011;38002;53.296;6.600;2023-06-22T06:18:47;60.67;;;39.90;;
51985;SDS011;38002;53.296;6.600;2023-06-22T06:23:49;48.38;;;31.00;;
51985;SDS011;38002;53.296;6.600;2023-06-22T06:28:50;59.07;;;38.77;;
51985;SDS011;38002;53.296;6.600;2023-06-22T06:33:50;43.83;;;32.97;;
51985;SDS011;38002;53.296;6.600;2023-06-22T06:38:51;37.60;;;29.80;;
51985;SDS011;38002;53.296;6.600;2023-06-22T06:43:51;35.90;;;24.17;;
51985;SDS011;38002;53.296;6.600;2023-06-22T06:48:52;43.50;;;31.83;;
51985;SDS011;38002;53.296;6.600;2023-06-22T06:53:52;48.83;;;31.57;;
51985;SDS011;38002;53.296;6.600;2023-06-22T06:58:52;32.17;;;24.10;;
51985;SDS011;38002;53.296;6.600;2023-06-22T07:03:53;27.77;;;20.23;;
51985;SDS011;38002;53.296;6.600;2023-06-22T07:08:53;18.43;;;13.90;;
51985;SDS011;38002;53.296;6.600;2023-06-22T07:13:55;27.52;;;21.67;;
51985;SDS011;38002;53.296;6.600;2023-06-22T07:18:55;23.93;;;18.57;;
51985;SDS011;38002;53.296;6.600;2023-06-22T07:23:55;14.37;;;11.13;;
51985;SDS011;38002;53.296;6.600;2023-06-22T07:28:56;15.98;;;10.73;;
51985;SDS011;38002;53.296;6.600;2023-06-22T07:33:57;12.70;;;11.30;;
51985;SDS011;38002;53.296;6.600;2023-06-22T07:38:57;13.70;;;10.40;;
51985;SDS011;38002;53.296;6.600;2023-06-22T07:43:58;10.03;;;8.10;;
51985;SDS011;38002;53.296;6.600;2023-06-22T07:48:58;8.97;;;6.67;;
51985;SDS011;38002;53.296;6.600;2023-06-22T07:53:59;8.82;;;6.68;;
51985;SDS011;38002;53.296;6.600;2023-06-22T07:59:00;6.77;;;5.43;;
51985;SDS011;38002;53.296;6.600;2023-06-22T08:04:02;6.85;;;4.88;;
51985;SDS011;38002;53.296;6.600;2023-06-22T08:09:02;6.40;;;5.03;;
51985;SDS011;38002;53.296;6.600;2023-06-22T08:14:03;7.00;;;4.88;;
51985;SDS011;38002;53.296;6.600;2023-06-22T08:19:03;4.57;;;4.17;;
51985;SDS011;38002;53.296;6.600;2023-06-22T08:24:04;4.53;;;4.13;;
51985;SDS011;38002;53.296;6.600;2023-06-22T08:29:05;3.20;;;3.00;;
51985;SDS011;38002;53.296;6.600;2023-06-22T08:34:05;5.40;;;4.47;;
51985;SDS011;38002;53.296;6.600;2023-06-22T08:39:06;3.90;;;3.60;;
51985;SDS011;38002;53.296;6.600;2023-06-22T08:44:06;3.90;;;3.60;;
51985;SDS011;38002;53.296;6.600;2023-06-22T08:49:07;4.40;;;4.00;;
51985;SDS011;38002;53.296;6.600;2023-06-22T08:54:08;6.82;;;4.95;;
51985;SDS011;38002;53.296;6.600;2023-06-22T08:59:09;5.97;;;4.47;;
51985;SDS011;38002;53.296;6.600;2023-06-22T09:04:09;5.07;;;4.57;;
51985;SDS011;38002;53.296;6.600;2023-06-22T09:09:10;4.78;;;4.38;;
51985;SDS011;38002;53.296;6.600;2023-06-22T09:14:12;10.98;;;6.15;;
51985;SDS011;38002;53.296;6.600;2023-06-22T09:19:12;7.33;;;6.13;;
51985;SDS011;38002;53.296;6.600;2023-06-22T09:24:13;6.00;;;4.70;;
51985;SDS011;38002;53.296;6.600;2023-06-22T09:29:13;6.50;;;5.77;;
51985;SDS011;38002;53.296;6.600;2023-06-22T09:34:14;7.47;;;6.47;;
51985;SDS011;38002;53.296;6.600;2023-06-22T09:39:14;3.97;;;3.67;;
51985;SDS011;38002;53.296;6.600;2023-06-22T09:44:15;6.60;;;5.90;;
51985;SDS011;38002;53.296;6.600;2023-06-22T09:49:15;8.67;;;5.77;;
51985;SDS011;38002;53.296;6.600;2023-06-22T09:54:16;10.43;;;7.47;;
51985;SDS011;38002;53.296;6.600;2023-06-22T09:59:16;7.28;;;5.60;;
51985;SDS011;38002;53.296;6.600;2023-06-22T10:04:17;7.63;;;6.20;;
51985;SDS011;38002;53.296;6.600;2023-06-22T10:09:17;8.00;;;6.47;;
51985;SDS011;38002;53.296;6.600;2023-06-22T10:14:18;8.57;;;6.50;;
51985;SDS011;38002;53.296;6.600;2023-06-22T10:19:19;7.57;;;5.75;;
51985;SDS011;38002;53.296;6.600;2023-06-22T10:29:20;7.00;;;6.40;;
51985;SDS011;38002;53.296;6.600;2023-06-22T10:39:20;7.27;;;6.40;;
51985;SDS011;38002;53.296;6.600;2023-06-22T10:49:21;9.30;;;8.20;;
51985;SDS011;38002;53.296;6.600;2023-06-22T10:59:22;7.68;;;6.88;;
51985;SDS011;38002;53.296;6.600;2023-06-22T11:04:23;6.82;;;6.22;;
51985;SDS011;38002;53.296;6.600;2023-06-22T11:09:24;8.18;;;6.25;;
51985;SDS011;38002;53.296;6.600;2023-06-22T11:19:25;7.15;;;5.43;;
51985;SDS011;38002;53.296;6.600;2023-06-22T11:29:26;4.63;;;4.20;;
51985;SDS011;38002;53.296;6.600;2023-06-22T11:34:26;5.53;;;5.00;;
51985;SDS011;38002;53.296;6.600;2023-06-22T11:39:28;3.60;;;3.13;;
51985;SDS011;38002;53.296;6.600;2023-06-22T11:44:28;6.72;;;4.10;;
51985;SDS011;38002;53.296;6.600;2023-06-22T11:49:29;5.05;;;3.20;;
51985;SDS011;38002;53.296;6.600;2023-06-22T11:54:30;5.82;;;2.92;;
51985;SDS011;38002;53.296;6.600;2023-06-22T11:59:31;5.63;;;4.03;;
51985;SDS011;38002;53.296;6.600;2023-06-22T12:04:31;4.43;;;3.57;;
51985;SDS011;38002;53.296;6.600;2023-06-22T12:09:31;4.85;;;3.78;;
51985;SDS011;38002;53.296;6.600;2023-06-22T12:14:32;4.82;;;3.75;;
51985;SDS011;38002;53.296;6.600;2023-06-22T12:19:32;3.50;;;2.78;;
51985;SDS011;38002;53.296;6.600;2023-06-22T12:24:33;3.80;;;3.40;;
51985;SDS011;38002;53.296;6.600;2023-06-22T12:29:33;5.45;;;3.45;;
51985;SDS011;38002;53.296;6.600;2023-06-22T12:34:33;4.00;;;3.57;;
51985;SDS011;38002;53.296;6.600;2023-06-22T12:39:34;6.00;;;4.30;;
51985;SDS011;38002;53.296;6.600;2023-06-22T12:44:35;4.20;;;3.38;;
51985;SDS011;38002;53.296;6.600;2023-06-22T12:49:35;4.32;;;3.92;;
51985;SDS011;38002;53.296;6.600;2023-06-22T12:59:37;2.40;;;1.87;;
51985;SDS011;38002;53.296;6.600;2023-06-22T13:09:37;5.93;;;1.90;;
51985;SDS011;38002;53.296;6.600;2023-06-22T13:19:38;3.03;;;2.10;;
51985;SDS011;38002;53.296;6.600;2023-06-22T13:29:39;2.83;;;1.80;;
51985;SDS011;38002;53.296;6.600;2023-06-22T13:39:40;1.90;;;1.80;;
51985;SDS011;38002;53.296;6.600;2023-06-22T13:44:40;3.60;;;1.50;;
51985;SDS011;38002;53.296;6.600;2023-06-22T13:49:41;1.67;;;1.57;;
51985;SDS011;38002;53.296;6.600;2023-06-22T13:59:42;1.83;;;1.60;;
51985;SDS011;38002;53.296;6.600;2023-06-22T14:04:42;2.30;;;1.40;;
51985;SDS011;38002;53.296;6.600;2023-06-22T14:09:43;1.80;;;1.10;;
51985;SDS011;38002;53.296;6.600;2023-06-22T14:19:44;3.10;;;1.85;;
51985;SDS011;38002;53.296;6.600;2023-06-22T14:24:45;2.43;;;1.57;;
51985;SDS011;38002;53.296;6.600;2023-06-22T14:29:46;2.80;;;1.40;;
51985;SDS011;38002;53.296;6.600;2023-06-22T14:34:46;2.87;;;1.53;;
51985;SDS011;38002;53.296;6.600;2023-06-22T14:39:47;1.93;;;1.70;;
51985;SDS011;38002;53.296;6.600;2023-06-22T14:44:47;2.50;;;1.70;;
51985;SDS011;38002;53.296;6.600;2023-06-22T14:49:48;5.80;;;1.58;;
51985;SDS011;38002;53.296;6.600;2023-06-22T14:54:49;2.70;;;1.13;;
51985;SDS011;38002;53.296;6.600;2023-06-22T14:59:52;4.25;;;1.42;;
51985;SDS011;38002;53.296;6.600;2023-06-22T15:04:52;1.23;;;1.20;;
51985;SDS011;38002;53.296;6.600;2023-06-22T15:14:54;2.83;;;1.25;;
51985;SDS011;38002;53.296;6.600;2023-06-22T15:19:55;2.57;;;1.17;;
51985;SDS011;38002;53.296;6.600;2023-06-22T15:24:55;2.17;;;1.13;;
51985;SDS011;38002;53.296;6.600;2023-06-22T15:29:58;0.93;;;0.90;;
51985;SDS011;38002;53.296;6.600;2023-06-22T15:34:58;1.33;;;0.83;;
51985;SDS011;38002;53.296;6.600;2023-06-22T15:39:59;1.80;;;0.93;;
51985;SDS011;38002;53.296;6.600;2023-06-22T15:44:59;2.47;;;1.27;;
51985;SDS011;38002;53.296;6.600;2023-06-22T15:50:00;1.87;;;1.17;;
51985;SDS011;38002;53.296;6.600;2023-06-22T15:55:00;4.30;;;1.40;;
51985;SDS011;38002;53.296;6.600;2023-06-22T16:00:01;1.70;;;1.10;;
51985;SDS011;38002;53.296;6.600;2023-06-22T16:05:01;1.52;;;1.00;;
51985;SDS011;38002;53.296;6.600;2023-06-22T16:10:03;1.95;;;1.10;;
51985;SDS011;38002;53.296;6.600;2023-06-22T16:15:05;1.13;;;1.02;;
51985;SDS011;38002;53.296;6.600;2023-06-22T16:20:06;1.23;;;1.13;;
51985;SDS011;38002;53.296;6.600;2023-06-22T16:25:07;1.30;;;1.20;;
51985;SDS011;38002;53.296;6.600;2023-06-22T16:30:08;2.60;;;1.30;;
51985;SDS011;38002;53.296;6.600;2023-06-22T16:35:09;1.65;;;1.55;;
51985;SDS011;38002;53.296;6.600;2023-06-22T16:40:09;2.10;;;1.90;;
51985;SDS011;38002;53.296;6.600;2023-06-22T16:45:16;1.45;;;1.35;;
51985;SDS011;38002;53.296;6.600;2023-06-22T16:50:17;2.45;;;2.10;;
51985;SDS011;38002;53.296;6.600;2023-06-22T16:55:17;2.72;;;2.40;;
51985;SDS011;38002;53.296;6.600;2023-06-22T17:00:22;3.28;;;2.75;;
51985;SDS011;38002;53.296;6.600;2023-06-22T17:05:23;3.17;;;2.40;;
51985;SDS011;38002;53.296;6.600;2023-06-22T17:10:23;3.30;;;2.70;;
51985;SDS011;38002;53.296;6.600;2023-06-22T17:15:24;4.23;;;2.70;;
51985;SDS011;38002;53.296;6.600;2023-06-22T17:20:26;2.22;;;2.10;;
51985;SDS011;38002;53.296;6.600;2023-06-22T17:25:27;3.63;;;2.03;;
51985;SDS011;38002;53.296;6.600;2023-06-22T17:30:29;8.05;;;2.78;;
51985;SDS011;38002;53.296;6.600;2023-06-22T17:35:30;4.47;;;2.23;;
51985;SDS011;38002;53.296;6.600;2023-06-22T17:40:31;3.78;;;2.33;;
51985;SDS011;38002;53.296;6.600;2023-06-22T17:45:40;3.03;;;2.33;;
51985;SDS011;38002;53.296;6.600;2023-06-22T17:50:42;6.30;;;2.30;;
51985;SDS011;38002;53.296;6.600;2023-06-22T17:55:42;8.80;;;2.70;;
51985;SDS011;38002;53.296;6.600;2023-06-22T18:00:43;3.57;;;2.57;;
51985;SDS011;38002;53.296;6.600;2023-06-22T18:05:45;3.07;;;2.53;;
51985;SDS011;38002;53.296;6.600;2023-06-22T18:10:47;4.47;;;2.75;;
51985;SDS011;38002;53.296;6.600;2023-06-22T18:15:48;4.95;;;2.58;;
51985;SDS011;38002;53.296;6.600;2023-06-22T18:20:51;4.43;;;2.28;;
51985;SDS011;38002;53.296;6.600;2023-06-22T18:25:52;3.40;;;2.47;;
51985;SDS011;38002;53.296;6.600;2023-06-22T18:30:52;7.87;;;2.57;;
51985;SDS011;38002;53.296;6.600;2023-06-22T18:35:53;2.55;;;2.35;;
51985;SDS011;38002;53.296;6.600;2023-06-22T18:40:56;3.60;;;2.78;;
51985;SDS011;38002;53.296;6.600;2023-06-22T18:46:19;3.63;;;2.75;;
51985;SDS011;38002;53.296;6.600;2023-06-22T19:23:34;3.22;;;2.92;;
51985;SDS011;38002;53.296;6.600;2023-06-22T19:28:53;3.35;;;2.67;;
51985;SDS011;38002;53.296;6.600;2023-06-22T19:39:03;6.45;;;3.13;;
51985;SDS011;38002;53.296;6.600;2023-06-22T19:44:04;4.20;;;3.08;;
51985;SDS011;38002;53.296;6.600;2023-06-22T19:54:09;4.23;;;2.57;;
51985;SDS011;38002;53.296;6.600;2023-06-22T19:59:12;4.47;;;3.10;;
51985;SDS011;38002;53.296;6.600;2023-06-22T20:04:15;6.93;;;3.17;;
51985;SDS011;38002;53.296;6.600;2023-06-22T20:09:15;3.57;;;3.00;;
51985;SDS011;38002;53.296;6.600;2023-06-22T20:14:19;6.07;;;3.70;;
51985;SDS011;38002;53.296;6.600;2023-06-22T20:19:19;7.30;;;3.97;;
51985;SDS011;38002;53.296;6.600;2023-06-22T20:24:21;6.65;;;2.97;;
51985;SDS011;38002;53.296;6.600;2023-06-22T20:29:26;3.33;;;2.87;;
51985;SDS011;38002;53.296;6.600;2023-06-22T20:34:33;3.22;;;2.90;;
51985;SDS011;38002;53.296;6.600;2023-06-22T20:39:35;6.93;;;3.00;;
51985;SDS011;38002;53.296;6.600;2023-06-22T20:44:36;4.38;;;3.08;;
51985;SDS011;38002;53.296;6.600;2023-06-22T20:49:36;3.50;;;3.03;;
51985;SDS011;38002;53.296;6.600;2023-06-22T20:54:37;4.70;;;2.90;;
51985;SDS011;38002;53.296;6.600;2023-06-22T20:59:37;6.60;;;3.70;;
51985;SDS011;38002;53.296;6.600;2023-06-22T21:04:38;4.60;;;3.07;;
51985;SDS011;38002;53.296;6.600;2023-06-22T21:09:41;5.68;;;3.70;;
51985;SDS011;38002;53.296;6.600;2023-06-22T21:14:41;6.73;;;3.73;;
51985;SDS011;38002;53.296;6.600;2023-06-22T21:19:42;5.13;;;3.50;;
51985;SDS011;38002;53.296;6.600;2023-06-22T21:24:42;3.97;;;3.63;;
51985;SDS011;38002;53.296;6.600;2023-06-22T21:29:43;9.57;;;4.60;;
51985;SDS011;38002;53.296;6.600;2023-06-22T21:34:43;7.17;;;4.30;;
51985;SDS011;38002;53.296;6.600;2023-06-22T21:39:44;8.00;;;5.17;;
51985;SDS011;38002;53.296;6.600;2023-06-22T21:44:45;8.73;;;5.17;;
51985;SDS011;38002;53.296;6.600;2023-06-22T21:49:45;7.50;;;4.32;;
51985;SDS011;38002;53.296;6.600;2023-06-22T21:54:46;7.77;;;4.43;;
51985;SDS011;38002;53.296;6.600;2023-06-22T21:59:46;10.70;;;6.10;;
51985;SDS011;38002;53.296;6.600;2023-06-22T22:04:47;10.57;;;6.63;;
51985;SDS011;38002;53.296;6.600;2023-06-22T22:09:47;7.70;;;5.80;;
51985;SDS011;38002;53.296;6.600;2023-06-22T22:14:47;7.37;;;5.93;;
51985;SDS011;38002;53.296;6.600;2023-06-22T22:19:48;9.50;;;7.67;;
51985;SDS011;38002;53.296;6.600;2023-06-22T22:24:48;10.00;;;6.40;;
51985;SDS011;38002;53.296;6.600;2023-06-22T22:29:49;10.67;;;7.30;;
51985;SDS011;38002;53.296;6.600;2023-06-22T22:34:49;9.07;;;7.70;;
51985;SDS011;38002;53.296;6.600;2023-06-22T22:39:50;11.97;;;7.37;;
51985;SDS011;38002;53.296;6.600;2023-06-22T22:44:50;7.87;;;6.60;;
51985;SDS011;38002;53.296;6.600;2023-06-22T22:49:50;14.50;;;7.27;;
51985;SDS011;38002;53.296;6.600;2023-06-22T22:54:51;7.30;;;6.43;;
51985;SDS011;38002;53.296;6.600;2023-06-22T22:59:51;12.67;;;7.40;;
51985;SDS011;38002;53.296;6.600;2023-06-22T23:04:55;10.70;;;6.60;;
51985;SDS011;38002;53.296;6.600;2023-06-22T23:09:57;13.50;;;8.23;;
51985;SDS011;38002;53.296;6.600;2023-06-22T23:14:57;13.57;;;7.87;;
51985;SDS011;38002;53.296;6.600;2023-06-22T23:19:58;11.17;;;8.67;;
51985;SDS011;38002;53.296;6.600;2023-06-22T23:24:58;9.97;;;8.93;;
51985;SDS011;38002;53.296;6.600;2023-06-22T23:29:59;11.60;;;7.93;;
51985;SDS011;38002;53.296;6.600;2023-06-22T23:34:59;12.37;;;8.17;;
51985;SDS011;38002;53.296;6.600;2023-06-22T23:40:00;12.57;;;8.87;;
51985;SDS011;38002;53.296;6.600;2023-06-22T23:45:01;11.27;;;7.80;;
51985;SDS011;38002;53.296;6.600;2023-06-22T23:50:01;11.47;;;6.63;;
51985;SDS011;38002;53.296;6.600;2023-06-22T23:55:02;11.27;;;8.07;;
